createdAt,value
2017-08-21T00:02:08.704Z,99409.32
2017-08-21T00:04:36.364Z,99416.69
2017-08-21T00:07:04.360Z,99427.83
2017-08-21T00:09:32.304Z,99440.30
2017-08-21T00:12:00.144Z,99428.95
2017-08-21T00:14:27.830Z,99427.09
2017-08-21T00:16:55.494Z,99430.00
2017-08-21T00:19:23.222Z,99426.83
2017-08-21T00:21:51.055Z,99424.49
2017-08-21T00:24:18.981Z,99417.01
2017-08-21T00:26:46.944Z,99425.86
2017-08-21T00:29:15.010Z,99434.93
2017-08-21T00:31:42.755Z,99438.75
2017-08-21T00:34:10.623Z,99444.35
2017-08-21T00:36:38.611Z,99443.30
2017-08-21T00:39:06.486Z,99439.94
2017-08-21T00:41:34.224Z,99437.70
2017-08-21T00:44:02.213Z,99440.08
2017-08-21T00:46:30.080Z,99453.13
2017-08-21T00:48:58.074Z,99453.94
2017-08-21T00:51:26.040Z,99456.12
2017-08-21T00:53:53.906Z,99459.30
2017-08-21T00:56:21.748Z,99457.12
2017-08-21T00:58:49.492Z,99460.67
2017-08-21T01:01:17.508Z,99456.96
2017-08-21T01:03:45.227Z,99463.69
2017-08-21T01:06:13.242Z,99457.59
2017-08-21T01:08:40.963Z,99457.38
2017-08-21T01:11:08.924Z,99453.89
2017-08-21T01:13:36.816Z,99454.82
2017-08-21T01:16:04.500Z,99454.54
2017-08-21T01:18:32.226Z,99453.03
2017-08-21T01:21:00.220Z,99457.52
2017-08-21T01:23:28.086Z,99466.70
2017-08-21T01:25:55.904Z,99471.32
2017-08-21T01:28:23.793Z,99470.15
2017-08-21T01:30:51.707Z,99470.55
2017-08-21T01:33:19.431Z,99475.72
2017-08-21T01:35:47.233Z,99479.52
2017-08-21T01:38:15.088Z,99481.12
2017-08-21T01:40:42.971Z,99481.92
2017-08-21T01:43:11.042Z,99481.88
2017-08-21T01:45:38.766Z,99485.61
2017-08-21T01:48:06.775Z,99493.27
2017-08-21T01:50:34.847Z,99499.34
2017-08-21T01:53:02.566Z,99501.95
2017-08-21T01:55:30.433Z,99504.66
2017-08-21T01:57:58.245Z,99505.27
2017-08-21T02:00:25.969Z,99504.19
2017-08-21T02:02:53.775Z,99503.06
2017-08-21T02:05:21.775Z,99509.31
2017-08-21T02:07:49.617Z,99517.61
2017-08-21T02:10:17.576Z,99525.77
2017-08-21T02:12:45.591Z,99535.66
2017-08-21T02:15:13.308Z,99532.92
2017-08-21T02:17:40.972Z,99521.17
2017-08-21T02:20:08.978Z,99521.78
2017-08-21T02:22:36.822Z,99522.42
2017-08-21T02:25:04.759Z,99520.77
2017-08-21T02:27:32.827Z,99507.89
2017-08-21T02:30:00.622Z,99509.69
2017-08-21T02:32:28.584Z,99508.81
2017-08-21T02:34:56.657Z,99514.11
2017-08-21T02:37:24.372Z,99523.42
2017-08-21T02:39:52.316Z,99521.31
2017-08-21T02:42:20.055Z,99520.87
2017-08-21T02:44:47.895Z,99520.66
2017-08-21T02:47:15.640Z,99514.55
2017-08-21T02:49:43.654Z,99514.77
2017-08-21T02:52:11.650Z,99512.52
2017-08-21T02:54:39.390Z,99510.73
2017-08-21T02:57:07.252Z,99514.17
2017-08-21T02:59:34.913Z,99516.61
2017-08-21T03:02:02.642Z,99523.13
2017-08-21T03:04:30.633Z,99538.38
2017-08-21T03:06:58.302Z,99542.46
2017-08-21T03:09:26.018Z,99531.58
2017-08-21T03:11:53.840Z,99532.42
2017-08-21T03:14:21.553Z,99530.98
2017-08-21T03:16:49.517Z,99540.75
2017-08-21T03:19:17.332Z,99544.59
2017-08-21T03:21:45.276Z,99542.19
2017-08-21T03:24:13.175Z,99537.84
2017-08-21T03:26:41.246Z,99537.97
2017-08-21T03:29:09.104Z,99542.17
2017-08-21T03:31:36.970Z,99535.92
2017-08-21T03:34:05.036Z,99546.29
2017-08-21T03:36:32.742Z,99538.86
2017-08-21T03:39:00.771Z,99535.86
2017-08-21T03:41:28.652Z,99523.39
2017-08-21T03:43:56.382Z,99527.44
2017-08-21T03:46:23.989Z,99524.65
2017-08-21T03:48:51.969Z,99519.41
2017-08-21T03:51:19.914Z,99517.16
2017-08-21T03:53:47.775Z,99505.84
2017-08-21T03:56:15.854Z,99499.70
2017-08-21T03:58:43.518Z,99489.57
2017-08-21T04:01:11.326Z,99489.18
2017-08-21T04:03:39.069Z,99487.01
2017-08-21T04:06:06.706Z,99484.00
2017-08-21T04:08:34.808Z,99507.16
2017-08-21T04:11:02.817Z,99509.89
2017-08-21T04:13:30.718Z,99515.81
2017-08-21T04:15:58.430Z,99526.89
2017-08-21T04:18:26.296Z,99524.94
2017-08-21T04:20:54.238Z,99527.19
2017-08-21T04:23:22.083Z,99523.97
2017-08-21T04:25:49.898Z,99521.89
2017-08-21T04:28:17.919Z,99525.01
2017-08-21T04:30:45.751Z,99524.73
2017-08-21T04:33:13.524Z,99538.91
2017-08-21T04:35:41.314Z,99539.82
2017-08-21T04:38:09.153Z,99534.30
2017-08-21T04:40:36.874Z,99544.53
2017-08-21T04:43:04.689Z,99551.50
2017-08-21T04:45:32.556Z,99547.73
2017-08-21T04:48:00.300Z,99553.50
2017-08-21T04:50:28.170Z,99560.38
2017-08-21T04:52:55.972Z,99559.59
2017-08-21T04:55:23.976Z,99566.16
2017-08-21T04:57:51.912Z,99565.64
2017-08-21T05:00:19.573Z,99573.50
2017-08-21T05:02:47.234Z,99566.67
2017-08-21T05:05:15.110Z,99576.53
2017-08-21T05:07:42.887Z,99568.88
2017-08-21T05:10:10.836Z,99577.88
2017-08-21T05:12:38.668Z,99575.02
2017-08-21T05:15:06.367Z,99578.83
2017-08-21T05:17:34.438Z,99576.15
2017-08-21T05:20:02.245Z,99571.30
2017-08-21T05:22:30.171Z,99576.05
2017-08-21T05:24:58.105Z,99574.73
2017-08-21T05:27:26.095Z,99573.31
2017-08-21T05:29:53.840Z,99567.88
2017-08-21T05:32:21.828Z,99563.11
2017-08-21T05:34:49.897Z,99559.49
2017-08-21T05:37:17.642Z,99558.42
2017-08-21T05:39:45.650Z,99565.28
2017-08-21T05:42:13.312Z,99570.55
2017-08-21T05:44:40.975Z,99577.72
2017-08-21T05:47:09.031Z,99573.17
2017-08-21T05:49:36.778Z,99563.88
2017-08-21T05:52:04.765Z,99571.19
2017-08-21T05:54:32.833Z,99558.13
2017-08-21T05:57:00.695Z,99563.03
2017-08-21T05:59:28.585Z,99565.05
2017-08-21T06:01:56.587Z,99568.75
2017-08-21T06:04:24.429Z,99569.48
2017-08-21T06:06:52.248Z,99571.66
2017-08-21T06:09:20.113Z,99567.75
2017-08-21T06:11:47.921Z,99568.64
2017-08-21T06:14:15.770Z,99560.63
2017-08-21T06:16:43.714Z,99558.37
2017-08-21T06:19:11.725Z,99548.10
2017-08-21T06:21:39.745Z,99549.29
2017-08-21T06:24:07.567Z,99552.57
2017-08-21T06:26:35.505Z,99556.65
2017-08-21T06:29:03.367Z,99556.89
2017-08-21T06:31:31.116Z,99557.44
2017-08-21T06:33:59.081Z,99552.38
2017-08-21T06:36:26.792Z,99548.89
2017-08-21T06:38:54.816Z,99563.80
2017-08-21T06:41:22.707Z,99562.14
2017-08-21T06:43:50.450Z,99559.59
2017-08-21T06:46:18.321Z,99569.75
2017-08-21T06:48:46.333Z,99565.48
2017-08-21T06:51:14.176Z,99576.01
2017-08-21T06:53:42.271Z,99578.62
2017-08-21T06:56:10.130Z,99569.84
2017-08-21T06:58:37.975Z,99578.91
2017-08-21T07:01:05.722Z,99574.92
2017-08-21T07:03:33.740Z,99578.72
2017-08-21T07:06:01.708Z,99577.02
2017-08-21T07:08:29.677Z,99576.70
2017-08-21T07:10:57.390Z,99578.67
2017-08-21T07:13:25.258Z,99582.74
2017-08-21T07:15:53.278Z,99585.60
2017-08-21T07:18:21.113Z,99584.94
2017-08-21T07:20:48.859Z,99584.38
2017-08-21T07:23:16.726Z,99579.70
2017-08-21T07:25:44.747Z,99576.33
2017-08-21T07:28:12.582Z,99568.99
2017-08-21T07:30:40.478Z,99573.47
2017-08-21T07:33:08.316Z,99570.81
2017-08-21T07:35:36.212Z,99569.34
2017-08-21T07:38:04.209Z,99567.15
2017-08-21T07:40:32.152Z,99568.13
2017-08-21T07:42:59.861Z,99564.73
2017-08-21T07:45:27.882Z,99576.83
2017-08-21T07:47:55.717Z,99579.13
2017-08-21T07:50:23.408Z,99581.16
2017-08-21T07:52:51.473Z,99570.08
2017-08-21T07:55:19.321Z,99580.56
2017-08-21T07:57:47.413Z,99577.67
2017-08-21T08:00:15.357Z,99573.08
2017-08-21T08:02:43.333Z,99571.95
2017-08-21T08:05:11.226Z,99563.12
2017-08-21T08:07:39.276Z,99565.45
2017-08-21T08:10:07.171Z,99572.17
2017-08-21T08:12:34.892Z,99574.27
2017-08-21T08:15:02.903Z,99579.12
2017-08-21T08:17:30.628Z,99588.69
2017-08-21T08:19:58.616Z,99585.02
2017-08-21T08:22:26.360Z,99588.92
2017-08-21T08:24:54.230Z,99590.05
2017-08-21T08:27:22.094Z,99592.55
2017-08-21T08:29:49.961Z,99594.96
2017-08-21T08:32:17.952Z,99597.82
2017-08-21T08:34:45.636Z,99593.41
2017-08-21T08:37:13.639Z,99582.22
2017-08-21T08:39:41.481Z,99580.70
2017-08-21T08:42:09.324Z,99576.34
2017-08-21T08:44:37.290Z,99578.06
2017-08-21T08:47:05.155Z,99582.88
2017-08-21T08:49:33.022Z,99572.36
2017-08-21T08:52:01.090Z,99567.63
2017-08-21T08:54:28.980Z,99563.56
2017-08-21T08:56:56.703Z,99561.07
2017-08-21T08:59:24.691Z,99555.27
2017-08-21T09:01:52.559Z,99551.95
2017-08-21T09:04:20.445Z,99552.13
2017-08-21T09:06:48.494Z,99555.81
2017-08-21T09:09:16.386Z,99558.78
2017-08-21T09:11:44.206Z,99551.75
2017-08-21T09:14:12.169Z,99552.23
2017-08-21T09:16:40.088Z,99549.50
2017-08-21T09:19:07.928Z,99548.77
2017-08-21T09:21:35.820Z,99542.08
2017-08-21T09:24:03.536Z,99551.67
2017-08-21T09:26:31.554Z,99555.12
2017-08-21T09:28:59.597Z,99560.05
2017-08-21T09:31:27.342Z,99562.61
2017-08-21T09:33:55.362Z,99559.45
2017-08-21T09:36:23.228Z,99556.53
2017-08-21T09:38:51.068Z,99562.38
2017-08-21T09:41:18.963Z,99567.44
2017-08-21T09:43:47.033Z,99571.59
2017-08-21T09:46:14.870Z,99569.79
2017-08-21T09:48:42.562Z,99563.62
2017-08-21T09:51:10.635Z,99565.77
2017-08-21T09:53:38.604Z,99556.95
2017-08-21T09:56:06.537Z,99553.11
2017-08-21T09:58:34.439Z,99561.38
2017-08-21T10:01:02.497Z,99548.12
2017-08-21T10:03:30.340Z,99557.48
2017-08-21T10:05:58.111Z,99549.22
2017-08-21T10:08:26.098Z,99552.79
2017-08-21T10:10:53.965Z,99551.98
2017-08-21T10:13:22.034Z,99552.67
2017-08-21T10:16:17.005Z,99557.84
2017-08-21T10:18:44.847Z,99553.53
2017-08-21T10:21:12.747Z,99550.06
2017-08-21T10:23:40.728Z,99546.36
2017-08-21T10:26:08.828Z,99555.43
2017-08-21T10:28:36.541Z,99554.34
2017-08-21T10:31:04.562Z,99552.75
2017-08-21T10:33:32.632Z,99556.34
2017-08-21T10:36:00.368Z,99556.40
2017-08-21T10:38:28.235Z,99554.46
2017-08-21T10:40:56.225Z,99560.38
2017-08-21T10:43:23.903Z,99561.12
2017-08-21T10:45:51.968Z,99559.27
2017-08-21T10:48:20.041Z,99560.36
2017-08-21T10:50:47.893Z,99568.06
2017-08-21T10:53:15.614Z,99560.85
2017-08-21T10:55:43.643Z,99564.25
2017-08-21T10:58:11.495Z,99560.25
2017-08-21T11:00:39.235Z,99563.35
2017-08-21T11:03:07.132Z,99559.95
2017-08-21T11:05:34.979Z,99554.23
2017-08-21T11:08:02.842Z,99550.17
2017-08-21T11:10:30.636Z,99548.33
2017-08-21T11:12:58.350Z,99548.63
2017-08-21T11:15:26.367Z,99539.65
2017-08-21T11:17:54.449Z,99540.52
2017-08-21T11:20:22.103Z,99542.19
2017-08-21T11:22:49.818Z,99539.31
2017-08-21T11:25:17.839Z,99535.53
2017-08-21T11:27:45.675Z,99531.42
2017-08-21T11:30:13.541Z,99536.80
2017-08-21T11:32:41.409Z,99526.89
2017-08-21T11:35:09.276Z,99539.19
2017-08-21T11:37:37.021Z,99533.23
2017-08-21T11:40:05.042Z,99530.59
2017-08-21T11:42:32.877Z,99532.32
2017-08-21T11:45:00.774Z,99533.14
2017-08-21T11:47:28.635Z,99523.80
2017-08-21T11:49:56.357Z,99526.86
2017-08-21T11:52:24.375Z,99527.39
2017-08-21T11:54:52.449Z,99525.88
2017-08-21T11:57:20.098Z,99519.58
2017-08-21T11:59:47.825Z,99522.42
2017-08-21T12:02:15.841Z,99517.84
2017-08-21T12:04:43.560Z,99516.49
2017-08-21T12:07:11.426Z,99530.34
2017-08-21T12:09:39.442Z,99517.98
2017-08-21T12:12:07.285Z,99522.39
2017-08-21T12:14:34.971Z,99522.38
2017-08-21T12:17:02.898Z,99514.20
2017-08-21T12:19:30.911Z,99514.06
2017-08-21T12:21:58.882Z,99520.17
2017-08-21T12:24:26.645Z,99523.52
2017-08-21T12:26:54.365Z,99517.71
2017-08-21T12:29:22.383Z,99519.96
2017-08-21T12:31:50.245Z,99523.68
2017-08-21T12:34:17.967Z,99523.05
2017-08-21T12:36:45.978Z,99523.34
2017-08-21T12:39:13.924Z,99522.01
2017-08-21T12:41:41.767Z,99514.47
2017-08-21T12:44:09.785Z,99518.27
2017-08-21T12:46:37.598Z,99518.33
2017-08-21T12:49:05.418Z,99517.55
2017-08-21T12:51:33.285Z,99512.73
2017-08-21T12:54:01.028Z,99512.56
2017-08-21T12:56:28.672Z,99506.48
2017-08-21T12:58:56.576Z,99503.33
2017-08-21T13:01:24.505Z,99500.14
2017-08-21T13:03:52.303Z,99498.82
2017-08-21T13:06:20.287Z,99494.04
2017-08-21T13:08:48.044Z,99491.41
2017-08-21T13:11:15.894Z,99485.09
2017-08-21T13:13:43.610Z,99485.54
2017-08-21T13:16:11.440Z,99483.64
2017-08-21T13:18:39.101Z,99484.97
2017-08-21T13:21:06.765Z,99478.58
2017-08-21T13:23:34.801Z,99481.30
2017-08-21T13:26:02.601Z,99469.33
2017-08-21T13:28:30.418Z,99473.53
2017-08-21T13:30:58.407Z,99476.34
2017-08-21T13:33:26.148Z,99477.96
2017-08-21T13:35:54.168Z,99477.13
2017-08-21T13:38:22.468Z,99476.63
2017-08-21T13:40:50.302Z,99477.74
2017-08-21T13:43:17.963Z,99472.19
2017-08-21T13:45:45.915Z,99470.55
2017-08-21T13:48:13.755Z,99473.80
2017-08-21T13:50:41.781Z,99476.52
2017-08-21T13:53:09.663Z,99477.05
2017-08-21T13:55:37.480Z,99486.12
2017-08-21T13:58:05.771Z,99484.13
2017-08-21T14:00:33.655Z,99488.73
2017-08-21T14:03:01.384Z,99495.34
2017-08-21T14:05:29.251Z,99496.80
2017-08-21T14:07:57.042Z,99495.48
2017-08-21T14:10:24.786Z,99493.06
2017-08-21T14:12:52.751Z,99495.61
2017-08-21T14:15:20.568Z,99495.80
2017-08-21T14:17:48.415Z,99496.03
2017-08-21T14:20:16.280Z,99493.62
2017-08-21T14:22:44.220Z,99492.91
2017-08-21T14:25:11.912Z,99491.91
2017-08-21T14:27:39.753Z,99491.34
2017-08-21T14:30:07.446Z,99484.80
2017-08-21T14:32:35.462Z,99485.67
2017-08-21T14:35:03.278Z,99490.09
2017-08-21T14:37:31.250Z,99486.22
2017-08-21T14:39:59.286Z,99484.59
2017-08-21T14:42:27.032Z,99487.92
2017-08-21T14:44:55.060Z,99498.03
2017-08-21T14:47:22.890Z,99488.72
2017-08-21T14:49:50.635Z,99494.75
2017-08-21T14:52:18.500Z,99503.66
2017-08-21T14:54:46.317Z,99499.27
2017-08-21T14:57:14.019Z,99505.23
2017-08-21T14:59:42.001Z,99519.16
2017-08-21T15:02:09.711Z,99523.97
2017-08-21T15:04:37.437Z,99524.16
2017-08-21T15:07:05.444Z,99524.72
2017-08-21T15:09:33.421Z,99538.52
2017-08-21T15:12:01.234Z,99536.32
2017-08-21T15:14:29.046Z,99541.03
2017-08-21T15:16:56.699Z,99534.91
2017-08-21T15:19:24.374Z,99536.16
2017-08-21T15:21:52.444Z,99535.39
2017-08-21T15:24:20.031Z,99540.88
2017-08-21T15:26:47.760Z,99537.72
2017-08-21T15:29:15.658Z,99537.61
2017-08-21T15:31:43.245Z,99539.50
2017-08-21T15:34:11.088Z,99541.86
2017-08-21T15:36:39.032Z,99541.16
2017-08-21T15:39:06.875Z,99546.54
2017-08-21T15:41:34.559Z,99551.74
2017-08-21T15:44:02.423Z,99553.81
2017-08-21T15:46:30.148Z,99553.28
2017-08-21T15:48:57.941Z,99552.68
2017-08-21T15:51:25.605Z,99552.28
2017-08-21T15:53:53.277Z,99551.98
2017-08-21T15:56:21.134Z,99553.10
2017-08-21T15:58:48.796Z,99543.96
2017-08-21T16:01:16.409Z,99544.92
2017-08-21T16:03:44.139Z,99547.92
2017-08-21T16:06:11.991Z,99545.80
2017-08-21T16:08:39.851Z,99552.95
2017-08-21T16:11:07.731Z,99553.26
2017-08-21T16:13:35.598Z,99550.38
2017-08-21T16:16:03.261Z,99546.86
2017-08-21T16:18:30.918Z,99546.57
2017-08-21T16:23:31.780Z,99550.19
2017-08-21T16:25:59.380Z,99550.99
2017-08-21T16:28:27.220Z,99560.27
2017-08-21T16:30:54.973Z,99553.27
2017-08-21T16:33:22.629Z,99557.00
2017-08-21T16:35:50.615Z,99556.75
2017-08-21T16:38:18.273Z,99561.05
2017-08-21T16:40:46.082Z,99562.03
2017-08-21T16:43:13.886Z,99559.51
2017-08-21T16:45:41.531Z,99564.69
2017-08-21T16:48:09.433Z,99563.55
2017-08-21T16:50:37.030Z,99560.19
2017-08-21T16:53:05.112Z,99553.36
2017-08-21T16:55:32.821Z,99548.77
2017-08-21T16:58:00.666Z,99549.72
2017-08-21T17:00:28.515Z,99558.80
2017-08-21T17:02:57.434Z,99550.64
2017-08-21T17:05:25.415Z,99550.82
2017-08-21T17:07:53.285Z,99553.17
2017-08-21T17:10:20.955Z,99558.49
2017-08-21T17:12:48.808Z,99563.27
2017-08-21T17:15:16.671Z,99560.58
2017-08-21T17:17:44.339Z,99560.36
2017-08-21T17:20:12.205Z,99562.08
2017-08-21T17:22:40.319Z,99562.44
2017-08-21T17:25:07.935Z,99563.30
2017-08-21T17:27:35.584Z,99564.41
2017-08-21T17:30:03.260Z,99563.49
2017-08-21T17:32:30.959Z,99566.98
2017-08-21T17:34:58.550Z,99566.17
2017-08-21T17:37:26.229Z,99567.99
2017-08-21T17:39:53.908Z,99572.03
2017-08-21T17:42:21.497Z,99574.77
2017-08-21T17:44:49.349Z,99576.13
2017-08-21T17:47:17.104Z,99583.25
2017-08-21T17:49:44.803Z,99587.09
2017-08-21T17:52:12.633Z,99587.48
2017-08-21T17:54:40.341Z,99594.89
2017-08-21T17:57:08.367Z,99594.80
2017-08-21T17:59:36.098Z,99603.64
2017-08-21T18:02:03.818Z,99608.23
2017-08-21T18:04:31.656Z,99610.66
2017-08-21T18:06:59.475Z,99615.52
2017-08-21T18:09:27.289Z,99613.04
2017-08-21T18:11:54.944Z,99618.25
2017-08-21T18:14:22.714Z,99617.92
2017-08-21T18:16:50.418Z,99616.58
2017-08-21T18:19:18.258Z,99616.31
2017-08-21T18:21:46.057Z,99624.59
2017-08-21T18:24:13.668Z,99626.87
2017-08-21T18:26:41.331Z,99629.45
2017-08-21T18:29:08.995Z,99629.25
2017-08-21T18:31:37.068Z,99627.95
2017-08-21T18:34:04.728Z,99635.41
2017-08-21T18:36:32.732Z,99642.79
2017-08-21T18:39:00.682Z,99656.09
2017-08-21T18:41:28.388Z,99652.70
2017-08-21T18:43:56.188Z,99654.47
2017-08-21T18:46:24.050Z,99660.08
2017-08-21T18:48:51.838Z,99667.27
2017-08-21T18:51:19.588Z,99662.56
2017-08-21T18:53:47.327Z,99662.55
2017-08-21T18:56:15.125Z,99665.14
2017-08-21T18:58:43.197Z,99667.22
2017-08-21T19:01:11.062Z,99672.42
2017-08-21T19:03:39.015Z,99676.21
2017-08-21T19:06:06.997Z,99681.08
2017-08-21T19:08:34.648Z,99677.78
2017-08-21T19:11:02.736Z,99683.50
2017-08-21T19:13:30.764Z,99683.27
2017-08-21T19:15:58.671Z,99682.77
2017-08-21T19:18:26.536Z,99680.01
2017-08-21T19:20:54.398Z,99672.77
2017-08-21T19:23:22.277Z,99670.72
2017-08-21T19:25:50.122Z,99673.11
2017-08-21T19:28:17.786Z,99665.87
2017-08-21T19:30:45.412Z,99668.01
2017-08-21T19:33:13.024Z,99666.36
2017-08-21T19:35:40.685Z,99658.05
2017-08-21T19:38:08.339Z,99657.86
2017-08-21T19:40:35.928Z,99659.57
2017-08-21T19:43:03.568Z,99657.66
2017-08-21T19:45:31.169Z,99661.40
2017-08-21T19:47:58.798Z,99663.47
2017-08-21T19:50:26.504Z,99655.09
2017-08-21T19:52:54.135Z,99660.30
2017-08-21T19:55:21.750Z,99658.17
2017-08-21T19:57:49.443Z,99655.34
2017-08-21T20:00:17.042Z,99656.16
2017-08-21T20:02:44.664Z,99654.24
2017-08-21T20:05:12.343Z,99650.00
2017-08-21T20:07:39.954Z,99660.25
2017-08-21T20:10:07.571Z,99654.73
2017-08-21T20:12:35.232Z,99659.55
2017-08-21T20:15:02.847Z,99653.33
2017-08-21T20:17:30.507Z,99657.31
2017-08-21T20:19:58.172Z,99658.48
2017-08-21T20:22:25.782Z,99656.17
2017-08-21T20:24:53.377Z,99657.11
2017-08-21T20:27:21.042Z,99656.16
2017-08-21T20:29:48.647Z,99665.05
2017-08-21T20:32:16.246Z,99653.38
2017-08-21T20:34:43.901Z,99660.85
2017-08-21T20:37:11.498Z,99654.99
2017-08-21T20:39:39.082Z,99653.13
2017-08-21T20:42:06.738Z,99653.47
2017-08-21T20:44:34.351Z,99655.75
2017-08-21T20:47:01.967Z,99654.83
2017-08-21T20:49:29.636Z,99650.03
2017-08-21T20:51:57.246Z,99650.98
2017-08-21T20:54:24.859Z,99652.72
2017-08-21T20:56:52.500Z,99646.69
2017-08-21T20:59:20.107Z,99642.23
2017-08-21T21:01:47.706Z,99641.19
2017-08-21T21:04:15.462Z,99641.42
2017-08-21T21:06:43.096Z,99646.28
2017-08-21T21:09:10.702Z,99650.05
2017-08-21T21:11:38.385Z,99646.91
2017-08-21T21:14:05.994Z,99644.19
2017-08-21T21:16:33.643Z,99650.41
2017-08-21T21:19:01.310Z,99644.59
2017-08-21T21:21:28.915Z,99648.47
2017-08-21T21:23:56.511Z,99648.73
2017-08-21T21:26:24.187Z,99645.80
2017-08-21T21:28:51.810Z,99646.10
2017-08-21T21:31:19.423Z,99641.80
2017-08-21T21:33:47.089Z,99638.83
2017-08-21T21:36:14.701Z,99642.01
2017-08-21T21:38:42.305Z,99633.78
2017-08-21T21:41:09.959Z,99633.39
2017-08-21T21:43:37.571Z,99627.41
2017-08-21T21:46:05.237Z,99633.43
2017-08-21T21:48:32.911Z,99627.57
2017-08-21T21:51:00.485Z,99623.42
2017-08-21T21:53:28.072Z,99626.61
2017-08-21T21:55:55.740Z,99630.80
2017-08-21T21:58:23.372Z,99631.91
2017-08-21T22:00:50.976Z,99623.68
2017-08-21T22:03:18.610Z,99630.23
2017-08-21T22:05:46.212Z,99631.91
2017-08-21T22:08:14.026Z,99627.47
2017-08-21T22:10:42.065Z,99627.41
2017-08-21T22:13:09.753Z,99630.64
2017-08-21T22:15:37.383Z,99628.23
2017-08-21T22:18:05.217Z,99621.00
2017-08-21T22:20:33.112Z,99618.57
2017-08-21T22:23:00.853Z,99620.23
2017-08-21T22:25:28.586Z,99622.36
2017-08-21T22:27:56.316Z,99620.54
2017-08-21T22:30:23.965Z,99610.91
2017-08-21T22:32:51.743Z,99617.33
2017-08-21T22:35:19.707Z,99610.75
2017-08-21T22:37:47.363Z,99604.74
2017-08-21T22:40:15.421Z,99602.87
2017-08-21T22:42:43.283Z,99610.41
2017-08-21T22:45:10.955Z,99601.16
2017-08-21T22:47:38.636Z,99608.12
2017-08-21T22:50:06.463Z,99599.44
2017-08-21T22:52:34.367Z,99601.21
2017-08-21T22:55:02.038Z,99594.88
2017-08-21T22:57:29.864Z,99602.75
2017-08-21T22:59:57.552Z,99605.39
2017-08-21T23:02:25.572Z,99601.05
2017-08-21T23:04:53.291Z,99602.45
2017-08-21T23:07:21.133Z,99606.86
2017-08-21T23:09:49.000Z,99609.63
2017-08-21T23:12:16.870Z,99608.78
2017-08-21T23:14:44.764Z,99604.04
2017-08-21T23:17:12.832Z,99613.48
2017-08-21T23:19:40.561Z,99605.80
2017-08-21T23:22:08.465Z,99609.28
2017-08-21T23:24:36.429Z,99611.05
2017-08-21T23:27:04.271Z,99614.48
2017-08-21T23:29:32.165Z,99609.44
2017-08-21T23:32:00.079Z,99610.39
2017-08-21T23:34:27.900Z,99609.65
2017-08-21T23:36:55.737Z,99611.31
2017-08-21T23:39:23.634Z,99613.33
2017-08-21T23:41:51.603Z,99615.25
2017-08-21T23:44:19.539Z,99617.50
2017-08-21T23:46:47.282Z,99612.56
2017-08-21T23:49:15.306Z,99612.97
2017-08-21T23:51:43.140Z,99614.03
2017-08-21T23:54:11.040Z,99611.67
2017-08-21T23:56:38.976Z,99609.38
2017-08-21T23:59:06.966Z,99615.89
